sensor_id;sensor_type;location;lat;lon;timestamp;pressure;altitude;pressure_sealevel;temperature;humidity
49583;BME280;36329;48.816;44.624;2023-06-22T00:01:22;101063;;;17.2;51.1
49583;BME280;36329;48.816;44.624;2023-06-22T00:04:24;101057;;;17.1;50.9
49583;BME280;36329;48.816;44.624;2023-06-22T00:07:26;101056;;;17.1;50.8
49583;BME280;36329;48.816;44.624;2023-06-22T00:10:28;101059;;;17.2;52.3
49583;BME280;36329;48.816;44.624;2023-06-22T00:13:30;101057;;;17.3;50
49583;BME280;36329;48.816;44.624;2023-06-22T00:16:32;101060;;;17.1;50
49583;BME280;36329;48.816;44.624;2023-06-22T00:19:35;101059;;;17.1;50.6
49583;BME280;36329;48.816;44.624;2023-06-22T00:22:37;101059;;;17.1;49.9
49583;BME280;36329;48.816;44.624;2023-06-22T00:25:39;101064;;;17.2;49.2
49583;BME280;36329;48.816;44.624;2023-06-22T00:28:41;101062;;;17.1;49.4
49583;BME280;36329;48.816;44.624;2023-06-22T00:31:43;101069;;;17.1;49.4
49583;BME280;36329;48.816;44.624;2023-06-22T00:34:45;101078;;;17.3;49.6
49583;BME280;36329;48.816;44.624;2023-06-22T00:37:47;101078;;;17.3;49.2
49583;BME280;36329;48.816;44.624;2023-06-22T00:40:49;101080;;;17.3;49.2
49583;BME280;36329;48.816;44.624;2023-06-22T00:43:50;101080;;;17.3;49.1
49583;BME280;36329;48.816;44.624;2023-06-22T00:46:53;101084;;;17.3;48.9
49583;BME280;36329;48.816;44.624;2023-06-22T00:49:55;101081;;;17.3;49
49583;BME280;36329;48.816;44.624;2023-06-22T00:52:59;101089;;;17.3;48.5
49583;BME280;36329;48.816;44.624;2023-06-22T00:56:02;101094;;;17.1;48.8
49583;BME280;36329;48.816;44.624;2023-06-22T00:59:04;101091;;;17.1;48.9
49583;BME280;36329;48.816;44.624;2023-06-22T01:02:06;101091;;;17;48.9
49583;BME280;36329;48.816;44.624;2023-06-22T01:05:08;101097;;;17;49.5
49583;BME280;36329;48.816;44.624;2023-06-22T01:08:23;101097;;;16.9;49.2
49583;BME280;36329;48.816;44.624;2023-06-22T01:11:32;101101;;;17.1;49.3
49583;BME280;36329;48.816;44.624;2023-06-22T01:14:42;101099;;;17.1;49.9
49583;BME280;36329;48.816;44.624;2023-06-22T01:17:46;101103;;;17.1;49.4
49583;BME280;36329;48.816;44.624;2023-06-22T01:20:50;101108;;;17;49.4
49583;BME280;36329;48.816;44.624;2023-06-22T01:24:01;101112;;;16.8;49.8
49583;BME280;36329;48.816;44.624;2023-06-22T01:27:23;101114;;;17;50.3
49583;BME280;36329;48.816;44.624;2023-06-22T01:30:31;101112;;;17.1;50.2
49583;BME280;36329;48.816;44.624;2023-06-22T01:33:35;101118;;;17.1;49.8
49583;BME280;36329;48.816;44.624;2023-06-22T01:36:39;101115;;;17;50.1
49583;BME280;36329;48.816;44.624;2023-06-22T01:39:42;101124;;;17.1;50.6
49583;BME280;36329;48.816;44.624;2023-06-22T01:42:44;101126;;;17;50.6
49583;BME280;36329;48.816;44.624;2023-06-22T01:45:47;101126;;;16.9;50.8
49583;BME280;36329;48.816;44.624;2023-06-22T01:48:50;101117;;;16.7;51.7
49583;BME280;36329;48.816;44.624;2023-06-22T01:51:52;101125;;;16.8;51.9
49583;BME280;36329;48.816;44.624;2023-06-22T01:54:54;101128;;;16.9;51.4
49583;BME280;36329;48.816;44.624;2023-06-22T01:57:56;101130;;;17;51.1
49583;BME280;36329;48.816;44.624;2023-06-22T02:01:02;101135;;;17;50.7
49583;BME280;36329;48.816;44.624;2023-06-22T02:04:13;101145;;;17;51.3
49583;BME280;36329;48.816;44.624;2023-06-22T02:07:20;101153;;;17.1;51.1
49583;BME280;36329;48.816;44.624;2023-06-22T02:10:24;101151;;;17.1;50.7
49583;BME280;36329;48.816;44.624;2023-06-22T02:13:27;101164;;;17.2;50.2
49583;BME280;36329;48.816;44.624;2023-06-22T02:16:31;101164;;;17.1;50.2
49583;BME280;36329;48.816;44.624;2023-06-22T02:19:36;101162;;;17;51
49583;BME280;36329;48.816;44.624;2023-06-22T02:22:38;101157;;;17;51.2
49583;BME280;36329;48.816;44.624;2023-06-22T02:25:39;101165;;;17;50.9
49583;BME280;36329;48.816;44.624;2023-06-22T02:28:41;101164;;;16.7;51.9
49583;BME280;36329;48.816;44.624;2023-06-22T02:31:43;101179;;;16.8;52
49583;BME280;36329;48.816;44.624;2023-06-22T02:34:45;101179;;;17.1;51.5
49583;BME280;36329;48.816;44.624;2023-06-22T02:37:47;101184;;;17.4;51.7
49583;BME280;36329;48.816;44.624;2023-06-22T02:40:49;101185;;;17.5;52
49583;BME280;36329;48.816;44.624;2023-06-22T02:43:52;101190;;;17.5;50.8
49583;BME280;36329;48.816;44.624;2023-06-22T02:46:54;101188;;;17.3;51.6
49583;BME280;36329;48.816;44.624;2023-06-22T02:49:56;101199;;;17.1;52.5
49583;BME280;36329;48.816;44.624;2023-06-22T02:52:57;101203;;;17.3;52.9
49583;BME280;36329;48.816;44.624;2023-06-22T02:56:00;101202;;;17.6;52.1
49583;BME280;36329;48.816;44.624;2023-06-22T02:59:02;101204;;;17.4;52.7
49583;BME280;36329;48.816;44.624;2023-06-22T03:02:04;101204;;;17.4;52.6
49583;BME280;36329;48.816;44.624;2023-06-22T03:05:06;101203;;;17.4;52.3
49583;BME280;36329;48.816;44.624;2023-06-22T03:08:08;101210;;;17.5;52.8
49583;BME280;36329;48.816;44.624;2023-06-22T03:11:10;101212;;;17.4;51.9
49583;BME280;36329;48.816;44.624;2023-06-22T03:14:12;101214;;;17.3;52.1
49583;BME280;36329;48.816;44.624;2023-06-22T03:17:14;101216;;;17.5;52.3
49583;BME280;36329;48.816;44.624;2023-06-22T03:20:16;101222;;;17.8;51.8
49583;BME280;36329;48.816;44.624;2023-06-22T03:23:18;101220;;;17.9;52.5
49583;BME280;36329;48.816;44.624;2023-06-22T03:26:20;101229;;;18.3;50.9
49583;BME280;36329;48.816;44.624;2023-06-22T03:29:22;101234;;;18.2;49.8
49583;BME280;36329;48.816;44.624;2023-06-22T03:32:24;101238;;;18.5;49.6
49583;BME280;36329;48.816;44.624;2023-06-22T03:35:26;101237;;;18.3;50
49583;BME280;36329;48.816;44.624;2023-06-22T03:38:29;101245;;;18.2;49.4
49583;BME280;36329;48.816;44.624;2023-06-22T03:41:31;101245;;;18.4;51
49583;BME280;36329;48.816;44.624;2023-06-22T03:44:33;101255;;;18.5;49.6
49583;BME280;36329;48.816;44.624;2023-06-22T03:47:34;101251;;;18.6;48.2
49583;BME280;36329;48.816;44.624;2023-06-22T03:50:37;101252;;;18.5;47.9
49583;BME280;36329;48.816;44.624;2023-06-22T03:53:39;101256;;;18.5;48.6
49583;BME280;36329;48.816;44.624;2023-06-22T03:56:41;101255;;;18.5;48.9
49583;BME280;36329;48.816;44.624;2023-06-22T03:59:43;101257;;;18.7;48.7
49583;BME280;36329;48.816;44.624;2023-06-22T04:02:45;101260;;;19;47.2
49583;BME280;36329;48.816;44.624;2023-06-22T04:05:47;101261;;;19;48.1
49583;BME280;36329;48.816;44.624;2023-06-22T04:08:49;101262;;;19;46.5
49583;BME280;36329;48.816;44.624;2023-06-22T04:11:51;101268;;;19;48
49583;BME280;36329;48.816;44.624;2023-06-22T04:14:53;101268;;;19;48.4
49583;BME280;36329;48.816;44.624;2023-06-22T04:17:56;101274;;;18.9;46.8
49583;BME280;36329;48.816;44.624;2023-06-22T04:20:58;101282;;;18.8;48.3
49583;BME280;36329;48.816;44.624;2023-06-22T04:24:00;101286;;;19;47.4
49583;BME280;36329;48.816;44.624;2023-06-22T04:27:02;101282;;;19.2;46.5
49583;BME280;36329;48.816;44.624;2023-06-22T04:30:05;101281;;;19.4;45.9
49583;BME280;36329;48.816;44.624;2023-06-22T04:33:07;101285;;;19.3;45.7
49583;BME280;36329;48.816;44.624;2023-06-22T04:36:09;101286;;;19.5;46.8
49583;BME280;36329;48.816;44.624;2023-06-22T04:39:11;101289;;;19.8;45.5
49583;BME280;36329;48.816;44.624;2023-06-22T04:42:13;101288;;;19.8;45
49583;BME280;36329;48.816;44.624;2023-06-22T04:45:15;101285;;;19.6;44.2
49583;BME280;36329;48.816;44.624;2023-06-22T04:48:17;101285;;;19.8;44.4
49583;BME280;36329;48.816;44.624;2023-06-22T04:51:19;101290;;;19.9;44.3
49583;BME280;36329;48.816;44.624;2023-06-22T04:54:21;101294;;;20.1;44.9
49583;BME280;36329;48.816;44.624;2023-06-22T04:57:23;101293;;;20.2;43
49583;BME280;36329;48.816;44.624;2023-06-22T05:00:25;101297;;;20.1;42.9
49583;BME280;36329;48.816;44.624;2023-06-22T05:03:27;101295;;;20.2;43.4
49583;BME280;36329;48.816;44.624;2023-06-22T05:06:29;101294;;;20.3;43.1
49583;BME280;36329;48.816;44.624;2023-06-22T05:09:31;101307;;;20.4;44.5
49583;BME280;36329;48.816;44.624;2023-06-22T05:12:34;101307;;;20.3;45.6
49583;BME280;36329;48.816;44.624;2023-06-22T05:15:36;101311;;;20;45.8
49583;BME280;36329;48.816;44.624;2023-06-22T05:18:38;101311;;;20;46.5
49583;BME280;36329;48.816;44.624;2023-06-22T05:21:41;101316;;;20.1;46.6
49583;BME280;36329;48.816;44.624;2023-06-22T05:24:43;101311;;;20.2;46.5
49583;BME280;36329;48.816;44.624;2023-06-22T05:27:45;101318;;;20.2;45.5
49583;BME280;36329;48.816;44.624;2023-06-22T05:30:47;101315;;;20.1;46.9
49583;BME280;36329;48.816;44.624;2023-06-22T05:33:51;101316;;;20.3;45.7
49583;BME280;36329;48.816;44.624;2023-06-22T05:36:53;101322;;;20.5;45.2
49583;BME280;36329;48.816;44.624;2023-06-22T05:39:55;101316;;;20.2;46.2
49583;BME280;36329;48.816;44.624;2023-06-22T05:42:57;101322;;;20.6;46
49583;BME280;36329;48.816;44.624;2023-06-22T05:46:00;101315;;;20.7;47.3
49583;BME280;36329;48.816;44.624;2023-06-22T05:49:02;101312;;;21.2;46.1
49583;BME280;36329;48.816;44.624;2023-06-22T05:52:04;101317;;;21.2;46.2
49583;BME280;36329;48.816;44.624;2023-06-22T05:55:06;101320;;;21.2;45.2
49583;BME280;36329;48.816;44.624;2023-06-22T05:58:08;101321;;;21.5;46.3
49583;BME280;36329;48.816;44.624;2023-06-22T06:01:11;101321;;;21.7;45.8
49583;BME280;36329;48.816;44.624;2023-06-22T06:04:13;101325;;;21.7;46.4
49583;BME280;36329;48.816;44.624;2023-06-22T06:07:15;101324;;;22;44.5
49583;BME280;36329;48.816;44.624;2023-06-22T06:10:16;101329;;;22.1;44.1
49583;BME280;36329;48.816;44.624;2023-06-22T06:13:19;101317;;;22;43.8
49583;BME280;36329;48.816;44.624;2023-06-22T06:16:21;101320;;;22.2;41.5
49583;BME280;36329;48.816;44.624;2023-06-22T06:19:23;101318;;;22.2;40.9
49583;BME280;36329;48.816;44.624;2023-06-22T06:22:25;101319;;;22.4;40.9
49583;BME280;36329;48.816;44.624;2023-06-22T06:25:27;101315;;;22.1;40.3
49583;BME280;36329;48.816;44.624;2023-06-22T06:28:30;101316;;;22.4;40.9
49583;BME280;36329;48.816;44.624;2023-06-22T06:31:32;101321;;;22.6;40.6
49583;BME280;36329;48.816;44.624;2023-06-22T06:34:34;101326;;;22.3;39.3
49583;BME280;36329;48.816;44.624;2023-06-22T06:37:39;101329;;;22.7;39.3
49583;BME280;36329;48.816;44.624;2023-06-22T06:40:41;101321;;;22.4;37
49583;BME280;36329;48.816;44.624;2023-06-22T06:43:43;101328;;;22.3;38.9
49583;BME280;36329;48.816;44.624;2023-06-22T06:46:45;101334;;;22.8;36.5
49583;BME280;36329;48.816;44.624;2023-06-22T06:49:47;101332;;;22.3;34.4
49583;BME280;36329;48.816;44.624;2023-06-22T06:52:49;101343;;;22.5;34.2
49583;BME280;36329;48.816;44.624;2023-06-22T06:55:51;101340;;;22.9;34.5
49583;BME280;36329;48.816;44.624;2023-06-22T06:58:53;101338;;;23.5;33.7
49583;BME280;36329;48.816;44.624;2023-06-22T07:01:55;101338;;;22.8;31.8
49583;BME280;36329;48.816;44.624;2023-06-22T07:04:57;101335;;;23;33
49583;BME280;36329;48.816;44.624;2023-06-22T07:07:59;101344;;;23;31.7
49583;BME280;36329;48.816;44.624;2023-06-22T07:11:01;101340;;;23.3;33.6
49583;BME280;36329;48.816;44.624;2023-06-22T07:14:04;101333;;;22.9;32.7
49583;BME280;36329;48.816;44.624;2023-06-22T07:17:06;101333;;;23;34.1
49583;BME280;36329;48.816;44.624;2023-06-22T07:20:08;101338;;;23.8;30.9
49583;BME280;36329;48.816;44.624;2023-06-22T07:23:11;101341;;;24;31.4
49583;BME280;36329;48.816;44.624;2023-06-22T07:26:13;101340;;;24.3;32.4
49583;BME280;36329;48.816;44.624;2023-06-22T07:29:15;101342;;;24.5;30.6
49583;BME280;36329;48.816;44.624;2023-06-22T07:32:17;101342;;;24.5;32.2
49583;BME280;36329;48.816;44.624;2023-06-22T07:35:19;101345;;;24.6;31.6
49583;BME280;36329;48.816;44.624;2023-06-22T07:38:21;101342;;;24.5;31.3
49583;BME280;36329;48.816;44.624;2023-06-22T07:41:23;101344;;;25.2;31.3
49583;BME280;36329;48.816;44.624;2023-06-22T07:44:25;101346;;;24.9;33.8
49583;BME280;36329;48.816;44.624;2023-06-22T07:47:27;101351;;;24.8;33.8
49583;BME280;36329;48.816;44.624;2023-06-22T07:50:29;101347;;;24.8;32
49583;BME280;36329;48.816;44.624;2023-06-22T07:53:31;101350;;;25.2;30.9
49583;BME280;36329;48.816;44.624;2023-06-22T07:56:33;101347;;;25.3;31.4
49583;BME280;36329;48.816;44.624;2023-06-22T07:59:36;101350;;;25.2;30.3
49583;BME280;36329;48.816;44.624;2023-06-22T08:02:38;101348;;;25.5;28.1
49583;BME280;36329;48.816;44.624;2023-06-22T08:05:40;101350;;;25.9;28.3
49583;BME280;36329;48.816;44.624;2023-06-22T08:08:42;101350;;;25.8;26.8
49583;BME280;36329;48.816;44.624;2023-06-22T08:11:44;101352;;;25.8;27.3
49583;BME280;36329;48.816;44.624;2023-06-22T08:14:46;101349;;;26.1;27.8
49583;BME280;36329;48.816;44.624;2023-06-22T08:17:49;101360;;;25.8;26.4
49583;BME280;36329;48.816;44.624;2023-06-22T08:20:51;101365;;;26;27.3
49583;BME280;36329;48.816;44.624;2023-06-22T08:23:53;101352;;;25.9;27.2
49583;BME280;36329;48.816;44.624;2023-06-22T08:26:55;101349;;;26.2;27.7
49583;BME280;36329;48.816;44.624;2023-06-22T08:29:57;101362;;;26.4;27.7
49583;BME280;36329;48.816;44.624;2023-06-22T08:32:59;101349;;;26.1;26.4
49583;BME280;36329;48.816;44.624;2023-06-22T08:36:01;101349;;;26;26.4
49583;BME280;36329;48.816;44.624;2023-06-22T08:39:03;101354;;;26.6;26.6
49583;BME280;36329;48.816;44.624;2023-06-22T08:42:06;101347;;;26.2;25.9
49583;BME280;36329;48.816;44.624;2023-06-22T08:45:08;101349;;;26.3;27.3
49583;BME280;36329;48.816;44.624;2023-06-22T08:48:11;101353;;;26.6;26.5
49583;BME280;36329;48.816;44.624;2023-06-22T08:51:13;101360;;;27.2;25.1
49583;BME280;36329;48.816;44.624;2023-06-22T08:54:14;101355;;;27.1;24.7
49583;BME280;36329;48.816;44.624;2023-06-22T08:57:16;101357;;;26.6;24.8
49583;BME280;36329;48.816;44.624;2023-06-22T09:00:19;101354;;;26.9;23.8
49583;BME280;36329;48.816;44.624;2023-06-22T09:03:21;101354;;;27;24.1
49583;BME280;36329;48.816;44.624;2023-06-22T09:06:23;101355;;;27;24.1
49583;BME280;36329;48.816;44.624;2023-06-22T09:09:25;101349;;;27;24.8
49583;BME280;36329;48.816;44.624;2023-06-22T09:12:27;101352;;;26.8;26.2
49583;BME280;36329;48.816;44.624;2023-06-22T09:15:29;101353;;;26.9;25.3
49583;BME280;36329;48.816;44.624;2023-06-22T09:18:33;101356;;;26.6;24.6
49583;BME280;36329;48.816;44.624;2023-06-22T09:21:36;101359;;;27;24.5
49583;BME280;36329;48.816;44.624;2023-06-22T09:24:38;101349;;;27;24.2
49583;BME280;36329;48.816;44.624;2023-06-22T09:27:40;101344;;;26.9;23.8
49583;BME280;36329;48.816;44.624;2023-06-22T09:30:43;101348;;;26.8;24.4
49583;BME280;36329;48.816;44.624;2023-06-22T09:33:45;101348;;;26.8;23.9
49583;BME280;36329;48.816;44.624;2023-06-22T09:36:47;101347;;;26.8;23.9
49583;BME280;36329;48.816;44.624;2023-06-22T09:39:49;101347;;;26.4;25
49583;BME280;36329;48.816;44.624;2023-06-22T09:42:51;101341;;;26.6;24.1
49583;BME280;36329;48.816;44.624;2023-06-22T09:45:53;101346;;;26.8;24
49583;BME280;36329;48.816;44.624;2023-06-22T09:48:55;101349;;;26.8;24.6
49583;BME280;36329;48.816;44.624;2023-06-22T09:51:57;101343;;;26.5;24.4
49583;BME280;36329;48.816;44.624;2023-06-22T09:54:59;101339;;;26.1;24
49583;BME280;36329;48.816;44.624;2023-06-22T09:58:01;101339;;;26.4;24.1
49583;BME280;36329;48.816;44.624;2023-06-22T10:01:03;101339;;;26.4;23.6
49583;BME280;36329;48.816;44.624;2023-06-22T10:04:04;101347;;;25.8;24.5
49583;BME280;36329;48.816;44.624;2023-06-22T10:07:06;101348;;;25.8;25.3
49583;BME280;36329;48.816;44.624;2023-06-22T10:10:09;101348;;;25.6;24.4
49583;BME280;36329;48.816;44.624;2023-06-22T10:13:11;101343;;;25.9;25.2
49583;BME280;36329;48.816;44.624;2023-06-22T10:16:13;101333;;;25.9;24.4
49583;BME280;36329;48.816;44.624;2023-06-22T10:19:15;101333;;;26.1;23.9
49583;BME280;36329;48.816;44.624;2023-06-22T10:22:17;101333;;;26.1;24.7
49583;BME280;36329;48.816;44.624;2023-06-22T10:25:19;101338;;;26;24.3
49583;BME280;36329;48.816;44.624;2023-06-22T10:28:21;101337;;;25.9;26
49583;BME280;36329;48.816;44.624;2023-06-22T10:31:23;101339;;;25.7;25.9
49583;BME280;36329;48.816;44.624;2023-06-22T10:34:25;101339;;;25.5;25.3
49583;BME280;36329;48.816;44.624;2023-06-22T10:37:26;101324;;;25.6;25.9
49583;BME280;36329;48.816;44.624;2023-06-22T10:40:28;101328;;;25.7;25
49583;BME280;36329;48.816;44.624;2023-06-22T10:43:30;101319;;;25.6;25.1
49583;BME280;36329;48.816;44.624;2023-06-22T10:46:32;101322;;;25.4;24.7
49583;BME280;36329;48.816;44.624;2023-06-22T10:49:34;101327;;;25.2;25.3
49583;BME280;36329;48.816;44.624;2023-06-22T10:52:36;101325;;;25.3;25.1
49583;BME280;36329;48.816;44.624;2023-06-22T10:55:38;101326;;;25.1;25.8
49583;BME280;36329;48.816;44.624;2023-06-22T10:58:40;101323;;;25;25.3
49583;BME280;36329;48.816;44.624;2023-06-22T11:01:42;101318;;;25.2;26.2
49583;BME280;36329;48.816;44.624;2023-06-22T11:04:44;101316;;;25.2;26.2
49583;BME280;36329;48.816;44.624;2023-06-22T11:07:46;101325;;;24.9;26.2
49583;BME280;36329;48.816;44.624;2023-06-22T11:10:48;101320;;;24.6;26.9
49583;BME280;36329;48.816;44.624;2023-06-22T11:13:50;101326;;;24.9;26.8
49583;BME280;36329;48.816;44.624;2023-06-22T11:16:52;101323;;;24.8;26.1
49583;BME280;36329;48.816;44.624;2023-06-22T11:19:54;101332;;;24.9;27
49583;BME280;36329;48.816;44.624;2023-06-22T11:22:56;101332;;;24.6;26.4
49583;BME280;36329;48.816;44.624;2023-06-22T11:25:58;101330;;;24.5;26.2
49583;BME280;36329;48.816;44.624;2023-06-22T11:29:00;101328;;;24.7;26.3
49583;BME280;36329;48.816;44.624;2023-06-22T11:32:02;101325;;;24.6;26.5
49583;BME280;36329;48.816;44.624;2023-06-22T11:35:04;101327;;;24.3;26.3
49583;BME280;36329;48.816;44.624;2023-06-22T11:38:07;101323;;;24;25.7
49583;BME280;36329;48.816;44.624;2023-06-22T11:41:10;101321;;;23.9;26
49583;BME280;36329;48.816;44.624;2023-06-22T11:44:12;101316;;;24.1;26.5
49583;BME280;36329;48.816;44.624;2023-06-22T11:47:14;101315;;;24.4;27.3
49583;BME280;36329;48.816;44.624;2023-06-22T11:50:16;101322;;;24.2;26.6
49583;BME280;36329;48.816;44.624;2023-06-22T11:53:18;101320;;;24.5;27.2
49583;BME280;36329;48.816;44.624;2023-06-22T11:56:20;101327;;;24.5;26.7
49583;BME280;36329;48.816;44.624;2023-06-22T11:59:22;101323;;;24.3;26
49583;BME280;36329;48.816;44.624;2023-06-22T12:02:24;101337;;;24.2;26.7
49583;BME280;36329;48.816;44.624;2023-06-22T12:05:26;101340;;;24.2;27.2
49583;BME280;36329;48.816;44.624;2023-06-22T12:08:28;101348;;;24.2;26
49583;BME280;36329;48.816;44.624;2023-06-22T12:11:30;101336;;;23.6;26.5
49583;BME280;36329;48.816;44.624;2023-06-22T12:14:32;101331;;;23.9;26.6
49583;BME280;36329;48.816;44.624;2023-06-22T12:17:35;101327;;;24;26.8
49583;BME280;36329;48.816;44.624;2023-06-22T12:20:37;101331;;;24;26.5
49583;BME280;36329;48.816;44.624;2023-06-22T12:23:39;101327;;;24.1;25.7
49583;BME280;36329;48.816;44.624;2023-06-22T12:26:41;101330;;;24;26.3
49583;BME280;36329;48.816;44.624;2023-06-22T12:29:45;101328;;;24;25.8
49583;BME280;36329;48.816;44.624;2023-06-22T12:32:47;101323;;;24;25.3
49583;BME280;36329;48.816;44.624;2023-06-22T12:35:48;101325;;;23.8;25.4
49583;BME280;36329;48.816;44.624;2023-06-22T12:38:50;101320;;;23.8;25.1
49583;BME280;36329;48.816;44.624;2023-06-22T12:41:52;101325;;;23.5;26
49583;BME280;36329;48.816;44.624;2023-06-22T12:44:55;101324;;;23.6;26.5
49583;BME280;36329;48.816;44.624;2023-06-22T12:47:57;101325;;;23.6;27.7
49583;BME280;36329;48.816;44.624;2023-06-22T12:50:59;101326;;;23.6;25.8
49583;BME280;36329;48.816;44.624;2023-06-22T12:54:01;101316;;;23.6;25.6
49583;BME280;36329;48.816;44.624;2023-06-22T12:57:03;101318;;;23.5;26
49583;BME280;36329;48.816;44.624;2023-06-22T13:00:08;101317;;;23.5;26.3
49583;BME280;36329;48.816;44.624;2023-06-22T13:03:10;101318;;;23.6;26.6
49583;BME280;36329;48.816;44.624;2023-06-22T13:06:12;101311;;;23.8;25.9
49583;BME280;36329;48.816;44.624;2023-06-22T13:09:15;101310;;;23.9;26
49583;BME280;36329;48.816;44.624;2023-06-22T13:12:17;101316;;;23.7;25.6
49583;BME280;36329;48.816;44.624;2023-06-22T13:15:19;101315;;;23.8;26.8
49583;BME280;36329;48.816;44.624;2023-06-22T13:18:21;101312;;;23.8;26.1
49583;BME280;36329;48.816;44.624;2023-06-22T13:21:24;101309;;;23.5;26.9
49583;BME280;36329;48.816;44.624;2023-06-22T13:24:27;101307;;;23.6;26.8
49583;BME280;36329;48.816;44.624;2023-06-22T13:27:29;101307;;;23.6;26.4
49583;BME280;36329;48.816;44.624;2023-06-22T13:30:31;101306;;;23.5;26.6
49583;BME280;36329;48.816;44.624;2023-06-22T13:33:33;101302;;;23.6;27.3
49583;BME280;36329;48.816;44.624;2023-06-22T13:36:35;101305;;;23.6;26.2
49583;BME280;36329;48.816;44.624;2023-06-22T13:39:37;101310;;;23.5;27.1
49583;BME280;36329;48.816;44.624;2023-06-22T13:42:39;101311;;;23.3;26.7
49583;BME280;36329;48.816;44.624;2023-06-22T13:45:41;101308;;;23.3;27.2
49583;BME280;36329;48.816;44.624;2023-06-22T13:48:43;101309;;;23.3;30.1
49583;BME280;36329;48.816;44.624;2023-06-22T13:51:45;101310;;;23.2;27.3
49583;BME280;36329;48.816;44.624;2023-06-22T13:54:47;101313;;;23.4;27.9
49583;BME280;36329;48.816;44.624;2023-06-22T13:57:49;101313;;;23.4;30.6
49583;BME280;36329;48.816;44.624;2023-06-22T14:00:51;101301;;;23.2;26.7
49583;BME280;36329;48.816;44.624;2023-06-22T14:03:53;101307;;;23.1;29
49583;BME280;36329;48.816;44.624;2023-06-22T14:06:55;101310;;;23.2;26.5
49583;BME280;36329;48.816;44.624;2023-06-22T14:09:57;101314;;;23.2;27.8
49583;BME280;36329;48.816;44.624;2023-06-22T14:12:59;101316;;;23.1;28
49583;BME280;36329;48.816;44.624;2023-06-22T14:16:00;101317;;;23.2;28
49583;BME280;36329;48.816;44.624;2023-06-22T14:19:03;101315;;;23;27.3
49583;BME280;36329;48.816;44.624;2023-06-22T14:22:05;101309;;;23.1;28.1
49583;BME280;36329;48.816;44.624;2023-06-22T14:25:07;101308;;;23.2;27.6
49583;BME280;36329;48.816;44.624;2023-06-22T14:28:10;101309;;;23.3;28.5
49583;BME280;36329;48.816;44.624;2023-06-22T14:31:12;101307;;;23;28
49583;BME280;36329;48.816;44.624;2023-06-22T14:34:14;101314;;;22.8;28.8
49583;BME280;36329;48.816;44.624;2023-06-22T14:37:16;101314;;;22.9;28.7
49583;BME280;36329;48.816;44.624;2023-06-22T14:40:18;101309;;;22.8;28.3
49583;BME280;36329;48.816;44.624;2023-06-22T14:43:21;101308;;;22.9;28.3
49583;BME280;36329;48.816;44.624;2023-06-22T14:46:23;101308;;;22.9;29.9
49583;BME280;36329;48.816;44.624;2023-06-22T14:49:25;101316;;;22.8;28.8
49583;BME280;36329;48.816;44.624;2023-06-22T14:52:27;101318;;;22.9;29.3
49583;BME280;36329;48.816;44.624;2023-06-22T14:55:29;101324;;;22.5;28.9
49583;BME280;36329;48.816;44.624;2023-06-22T14:58:31;101322;;;22.6;30
49583;BME280;36329;48.816;44.624;2023-06-22T15:01:33;101320;;;22.7;29.6
49583;BME280;36329;48.816;44.624;2023-06-22T15:04:35;101328;;;22.7;29.3
49583;BME280;36329;48.816;44.624;2023-06-22T15:07:37;101326;;;22.7;29.1
49583;BME280;36329;48.816;44.624;2023-06-22T15:10:40;101324;;;22.6;29
49583;BME280;36329;48.816;44.624;2023-06-22T15:13:42;101330;;;22.7;30.7
49583;BME280;36329;48.816;44.624;2023-06-22T15:16:44;101332;;;22.5;29.9
49583;BME280;36329;48.816;44.624;2023-06-22T15:19:46;101331;;;22.5;29.4
49583;BME280;36329;48.816;44.624;2023-06-22T15:22:48;101325;;;22.5;29.5
49583;BME280;36329;48.816;44.624;2023-06-22T15:25:50;101330;;;22.5;29.6
49583;BME280;36329;48.816;44.624;2023-06-22T15:28:53;101332;;;22.5;30.2
49583;BME280;36329;48.816;44.624;2023-06-22T15:31:55;101329;;;22.5;30.5
49583;BME280;36329;48.816;44.624;2023-06-22T15:34:57;101330;;;22.4;29.9
49583;BME280;36329;48.816;44.624;2023-06-22T15:38:00;101338;;;22.4;30.4
49583;BME280;36329;48.816;44.624;2023-06-22T15:41:02;101343;;;22.5;31.3
49583;BME280;36329;48.816;44.624;2023-06-22T15:44:04;101348;;;22.5;31.1
49583;BME280;36329;48.816;44.624;2023-06-22T15:47:06;101351;;;22.6;31.7
49583;BME280;36329;48.816;44.624;2023-06-22T15:50:08;101358;;;22.8;32
49583;BME280;36329;48.816;44.624;2023-06-22T15:53:10;101353;;;22.8;31.8
49583;BME280;36329;48.816;44.624;2023-06-22T15:56:12;101360;;;22.8;31.8
49583;BME280;36329;48.816;44.624;2023-06-22T15:59:14;101353;;;22.7;31.9
49583;BME280;36329;48.816;44.624;2023-06-22T16:02:16;101356;;;22.7;32.5
49583;BME280;36329;48.816;44.624;2023-06-22T16:05:18;101362;;;22.6;32.1
49583;BME280;36329;48.816;44.624;2023-06-22T16:08:20;101360;;;22.6;32.4
49583;BME280;36329;48.816;44.624;2023-06-22T16:11:22;101358;;;22.5;32.2
49583;BME280;36329;48.816;44.624;2023-06-22T16:14:24;101358;;;22.4;32.1
49583;BME280;36329;48.816;44.624;2023-06-22T16:17:26;101361;;;22.4;33
49583;BME280;36329;48.816;44.624;2023-06-22T16:20:28;101361;;;22.4;31.9
49583;BME280;36329;48.816;44.624;2023-06-22T16:23:30;101361;;;22.3;32.1
49583;BME280;36329;48.816;44.624;2023-06-22T16:26:38;101368;;;22.2;31.6
49583;BME280;36329;48.816;44.624;2023-06-22T16:29:41;101366;;;22;31.3
49583;BME280;36329;48.816;44.624;2023-06-22T16:32:49;101366;;;22;32.1
49583;BME280;36329;48.816;44.624;2023-06-22T16:35:52;101360;;;22;31.7
49583;BME280;36329;48.816;44.624;2023-06-22T16:38:54;101365;;;22;32.7
49583;BME280;36329;48.816;44.624;2023-06-22T16:41:56;101368;;;21.9;33
49583;BME280;36329;48.816;44.624;2023-06-22T16:44:58;101372;;;21.9;33.1
49583;BME280;36329;48.816;44.624;2023-06-22T16:48:00;101368;;;21.8;32.6
49583;BME280;36329;48.816;44.624;2023-06-22T16:51:01;101372;;;21.8;32.5
49583;BME280;36329;48.816;44.624;2023-06-22T16:54:04;101375;;;21.8;33.3